sensor_id;sensor_type;location;lat;lon;timestamp;P1;durP1;ratioP1;P2;durP2;ratioP2
54959;SDS011;40860;51.710;8.736;2023-09-12T00:02:21;19.08;;;13.98;;
54959;SDS011;40860;51.710;8.736;2023-09-12T00:06:24;16.75;;;13.70;;
54959;SDS011;40860;51.710;8.736;2023-09-12T00:10:27;17.17;;;13.13;;
54959;SDS011;40860;51.710;8.736;2023-09-12T00:14:30;17.40;;;14.27;;
54959;SDS011;40860;51.710;8.736;2023-09-12T00:18:35;17.20;;;12.82;;
54959;SDS011;40860;51.710;8.736;2023-09-12T00:22:38;16.38;;;13.00;;
54959;SDS011;40860;51.710;8.736;2023-09-12T00:26:41;15.27;;;12.50;;
54959;SDS011;40860;51.710;8.736;2023-09-12T00:30:44;17.15;;;13.95;;
54959;SDS011;40860;51.710;8.736;2023-09-12T00:34:48;16.50;;;14.75;;
54959;SDS011;40860;51.710;8.736;2023-09-12T00:38:51;16.33;;;13.20;;
54959;SDS011;40860;51.710;8.736;2023-09-12T00:42:54;16.80;;;12.85;;
54959;SDS011;40860;51.710;8.736;2023-09-12T00:46:57;14.63;;;12.88;;
54959;SDS011;40860;51.710;8.736;2023-09-12T00:51:03;17.30;;;13.13;;
54959;SDS011;40860;51.710;8.736;2023-09-12T00:55:07;17.25;;;13.10;;
54959;SDS011;40860;51.710;8.736;2023-09-12T00:59:10;16.33;;;13.30;;
54959;SDS011;40860;51.710;8.736;2023-09-12T01:03:13;15.00;;;12.48;;
54959;SDS011;40860;51.710;8.736;2023-09-12T01:07:18;17.48;;;12.73;;
54959;SDS011;40860;51.710;8.736;2023-09-12T01:11:21;15.07;;;12.52;;
54959;SDS011;40860;51.710;8.736;2023-09-12T01:15:26;17.67;;;14.25;;
54959;SDS011;40860;51.710;8.736;2023-09-12T01:19:30;15.23;;;12.95;;
54959;SDS011;40860;51.710;8.736;2023-09-12T01:23:37;17.00;;;13.00;;
54959;SDS011;40860;51.710;8.736;2023-09-12T01:27:53;16.60;;;14.75;;
54959;SDS011;40860;51.710;8.736;2023-09-12T01:31:57;16.52;;;14.30;;
54959;SDS011;40860;51.710;8.736;2023-09-12T01:36:02;19.15;;;14.55;;
54959;SDS011;40860;51.710;8.736;2023-09-12T01:40:06;17.38;;;12.68;;
54959;SDS011;40860;51.710;8.736;2023-09-12T01:44:11;17.17;;;14.77;;
54959;SDS011;40860;51.710;8.736;2023-09-12T01:48:15;20.02;;;15.02;;
54959;SDS011;40860;51.710;8.736;2023-09-12T01:52:21;16.13;;;13.68;;
54959;SDS011;40860;51.710;8.736;2023-09-12T01:56:25;21.58;;;14.45;;
54959;SDS011;40860;51.710;8.736;2023-09-12T02:00:29;18.13;;;15.38;;
54959;SDS011;40860;51.710;8.736;2023-09-12T02:04:33;18.88;;;14.13;;
54959;SDS011;40860;51.710;8.736;2023-09-12T02:08:36;18.90;;;15.73;;
54959;SDS011;40860;51.710;8.736;2023-09-12T02:12:39;20.48;;;14.82;;
54959;SDS011;40860;51.710;8.736;2023-09-12T02:16:43;16.58;;;14.85;;
54959;SDS011;40860;51.710;8.736;2023-09-12T02:20:47;18.60;;;16.58;;
54959;SDS011;40860;51.710;8.736;2023-09-12T02:24:50;19.10;;;17.08;;
54959;SDS011;40860;51.710;8.736;2023-09-12T02:28:53;24.55;;;20.27;;
54959;SDS011;40860;51.710;8.736;2023-09-12T02:32:57;24.73;;;19.65;;
54959;SDS011;40860;51.710;8.736;2023-09-12T02:37:00;23.95;;;19.00;;
54959;SDS011;40860;51.710;8.736;2023-09-12T02:41:03;21.55;;;18.85;;
54959;SDS011;40860;51.710;8.736;2023-09-12T02:45:06;22.10;;;19.50;;
54959;SDS011;40860;51.710;8.736;2023-09-12T02:49:11;20.75;;;16.77;;
54959;SDS011;40860;51.710;8.736;2023-09-12T02:53:13;16.08;;;14.60;;
54959;SDS011;40860;51.710;8.736;2023-09-12T02:57:16;16.50;;;14.40;;
54959;SDS011;40860;51.710;8.736;2023-09-12T03:01:20;16.77;;;13.60;;
54959;SDS011;40860;51.710;8.736;2023-09-12T03:05:24;14.68;;;12.75;;
54959;SDS011;40860;51.710;8.736;2023-09-12T03:09:27;13.82;;;12.43;;
54959;SDS011;40860;51.710;8.736;2023-09-12T03:13:30;15.55;;;12.80;;
54959;SDS011;40860;51.710;8.736;2023-09-12T03:17:33;13.27;;;11.95;;
54959;SDS011;40860;51.710;8.736;2023-09-12T03:21:37;14.73;;;13.32;;
54959;SDS011;40860;51.710;8.736;2023-09-12T03:25:41;14.52;;;12.55;;
54959;SDS011;40860;51.710;8.736;2023-09-12T03:29:46;13.85;;;12.32;;
54959;SDS011;40860;51.710;8.736;2023-09-12T03:33:49;15.50;;;12.25;;
54959;SDS011;40860;51.710;8.736;2023-09-12T03:37:56;13.77;;;12.48;;
54959;SDS011;40860;51.710;8.736;2023-09-12T03:42:00;13.90;;;12.60;;
54959;SDS011;40860;51.710;8.736;2023-09-12T03:46:02;14.25;;;12.50;;
54959;SDS011;40860;51.710;8.736;2023-09-12T03:50:06;15.05;;;12.40;;
54959;SDS011;40860;51.710;8.736;2023-09-12T03:54:11;13.70;;;11.02;;
54959;SDS011;40860;51.710;8.736;2023-09-12T03:58:14;12.50;;;11.20;;
54959;SDS011;40860;51.710;8.736;2023-09-12T04:02:18;12.77;;;11.27;;
54959;SDS011;40860;51.710;8.736;2023-09-12T04:06:21;13.43;;;10.85;;
54959;SDS011;40860;51.710;8.736;2023-09-12T04:10:25;10.95;;;9.93;;
54959;SDS011;40860;51.710;8.736;2023-09-12T04:14:28;12.82;;;10.98;;
54959;SDS011;40860;51.710;8.736;2023-09-12T04:18:31;13.20;;;11.80;;
54959;SDS011;40860;51.710;8.736;2023-09-12T04:22:35;13.82;;;12.40;;
54959;SDS011;40860;51.710;8.736;2023-09-12T04:26:39;13.50;;;12.25;;
54959;SDS011;40860;51.710;8.736;2023-09-12T04:30:42;14.88;;;13.38;;
54959;SDS011;40860;51.710;8.736;2023-09-12T04:34:48;16.98;;;12.35;;
54959;SDS011;40860;51.710;8.736;2023-09-12T04:38:51;13.40;;;11.98;;
54959;SDS011;40860;51.710;8.736;2023-09-12T04:42:56;13.00;;;11.60;;
54959;SDS011;40860;51.710;8.736;2023-09-12T04:46:59;15.80;;;12.13;;
54959;SDS011;40860;51.710;8.736;2023-09-12T04:51:02;14.23;;;11.32;;
54959;SDS011;40860;51.710;8.736;2023-09-12T04:55:06;12.40;;;10.80;;
54959;SDS011;40860;51.710;8.736;2023-09-12T04:59:10;12.20;;;10.77;;
54959;SDS011;40860;51.710;8.736;2023-09-12T05:03:14;13.07;;;11.77;;
54959;SDS011;40860;51.710;8.736;2023-09-12T05:07:18;13.27;;;10.65;;
54959;SDS011;40860;51.710;8.736;2023-09-12T05:11:21;11.68;;;10.27;;
54959;SDS011;40860;51.710;8.736;2023-09-12T05:15:26;14.30;;;10.82;;
54959;SDS011;40860;51.710;8.736;2023-09-12T05:19:29;12.68;;;10.65;;
54959;SDS011;40860;51.710;8.736;2023-09-12T05:23:33;13.35;;;11.95;;
54959;SDS011;40860;51.710;8.736;2023-09-12T05:27:36;14.35;;;12.88;;
54959;SDS011;40860;51.710;8.736;2023-09-12T05:31:40;14.18;;;12.77;;
54959;SDS011;40860;51.710;8.736;2023-09-12T05:35:43;16.10;;;13.35;;
54959;SDS011;40860;51.710;8.736;2023-09-12T05:39:46;15.82;;;13.82;;
54959;SDS011;40860;51.710;8.736;2023-09-12T05:43:49;14.77;;;13.27;;
54959;SDS011;40860;51.710;8.736;2023-09-12T05:47:54;14.85;;;13.25;;
54959;SDS011;40860;51.710;8.736;2023-09-12T05:51:57;13.77;;;12.40;;
54959;SDS011;40860;51.710;8.736;2023-09-12T05:56:01;12.95;;;11.57;;
54959;SDS011;40860;51.710;8.736;2023-09-12T06:00:04;11.77;;;10.68;;
54959;SDS011;40860;51.710;8.736;2023-09-12T06:04:16;10.20;;;9.20;;
54959;SDS011;40860;51.710;8.736;2023-09-12T06:08:19;10.35;;;9.35;;
54959;SDS011;40860;51.710;8.736;2023-09-12T06:12:22;8.73;;;7.10;;
54959;SDS011;40860;51.710;8.736;2023-09-12T06:16:25;10.38;;;7.50;;
54959;SDS011;40860;51.710;8.736;2023-09-12T06:20:30;8.00;;;7.22;;
54959;SDS011;40860;51.710;8.736;2023-09-12T06:24:33;9.90;;;8.20;;
54959;SDS011;40860;51.710;8.736;2023-09-12T06:28:36;8.02;;;7.30;;
54959;SDS011;40860;51.710;8.736;2023-09-12T06:32:39;8.20;;;7.40;;
54959;SDS011;40860;51.710;8.736;2023-09-12T06:36:43;11.07;;;8.35;;
54959;SDS011;40860;51.710;8.736;2023-09-12T06:40:47;10.15;;;9.20;;
54959;SDS011;40860;51.710;8.736;2023-09-12T06:44:50;11.80;;;10.60;;
54959;SDS011;40860;51.710;8.736;2023-09-12T06:48:53;11.70;;;9.13;;
54959;SDS011;40860;51.710;8.736;2023-09-12T06:52:57;10.05;;;9.05;;
54959;SDS011;40860;51.710;8.736;2023-09-12T06:57:00;9.60;;;8.63;;
54959;SDS011;40860;51.710;8.736;2023-09-12T07:01:04;9.35;;;8.32;;
54959;SDS011;40860;51.710;8.736;2023-09-12T07:05:07;8.38;;;7.57;;
54959;SDS011;40860;51.710;8.736;2023-09-12T07:09:12;7.90;;;7.15;;
54959;SDS011;40860;51.710;8.736;2023-09-12T07:13:16;9.23;;;7.22;;
54959;SDS011;40860;51.710;8.736;2023-09-12T07:17:19;7.88;;;6.82;;
54959;SDS011;40860;51.710;8.736;2023-09-12T07:21:21;7.93;;;6.45;;
54959;SDS011;40860;51.710;8.736;2023-09-12T07:25:28;6.97;;;6.30;;
54959;SDS011;40860;51.710;8.736;2023-09-12T07:29:30;6.68;;;6.07;;
54959;SDS011;40860;51.710;8.736;2023-09-12T07:33:33;8.45;;;6.45;;
54959;SDS011;40860;51.710;8.736;2023-09-12T07:37:36;5.70;;;5.20;;
54959;SDS011;40860;51.710;8.736;2023-09-12T07:41:41;6.20;;;5.70;;
54959;SDS011;40860;51.710;8.736;2023-09-12T07:45:43;10.48;;;5.70;;
54959;SDS011;40860;51.710;8.736;2023-09-12T07:49:52;4.55;;;3.95;;
54959;SDS011;40860;51.710;8.736;2023-09-12T07:53:55;5.55;;;4.80;;
54959;SDS011;40860;51.710;8.736;2023-09-12T07:58:00;4.82;;;3.75;;
54959;SDS011;40860;51.710;8.736;2023-09-12T08:02:03;4.40;;;4.00;;
54959;SDS011;40860;51.710;8.736;2023-09-12T08:06:07;4.10;;;3.70;;
54959;SDS011;40860;51.710;8.736;2023-09-12T08:10:10;3.97;;;3.47;;
54959;SDS011;40860;51.710;8.736;2023-09-12T08:14:14;4.38;;;3.70;;
54959;SDS011;40860;51.710;8.736;2023-09-12T08:18:17;4.20;;;3.50;;
54959;SDS011;40860;51.710;8.736;2023-09-12T08:22:20;5.07;;;4.00;;
54959;SDS011;40860;51.710;8.736;2023-09-12T08:26:22;4.90;;;3.85;;
54959;SDS011;40860;51.710;8.736;2023-09-12T08:30:27;5.30;;;4.80;;
54959;SDS011;40860;51.710;8.736;2023-09-12T08:34:34;5.43;;;4.90;;
54959;SDS011;40860;51.710;8.736;2023-09-12T08:38:37;6.43;;;5.50;;
54959;SDS011;40860;51.710;8.736;2023-09-12T08:42:40;6.72;;;5.60;;
54959;SDS011;40860;51.710;8.736;2023-09-12T08:46:45;7.75;;;7.05;;
54959;SDS011;40860;51.710;8.736;2023-09-12T08:50:48;10.10;;;8.23;;
54959;SDS011;40860;51.710;8.736;2023-09-12T08:54:52;13.50;;;8.20;;
54959;SDS011;40860;51.710;8.736;2023-09-12T08:58:55;7.72;;;6.60;;
54959;SDS011;40860;51.710;8.736;2023-09-12T09:03:00;8.00;;;7.20;;
54959;SDS011;40860;51.710;8.736;2023-09-12T09:07:04;5.38;;;4.88;;
54959;SDS011;40860;51.710;8.736;2023-09-12T09:11:08;8.48;;;6.50;;
54959;SDS011;40860;51.710;8.736;2023-09-12T09:15:22;5.97;;;4.80;;
54959;SDS011;40860;51.710;8.736;2023-09-12T09:19:33;5.97;;;5.47;;
54959;SDS011;40860;51.710;8.736;2023-09-12T09:23:44;6.15;;;5.55;;
54959;SDS011;40860;51.710;8.736;2023-09-12T09:27:48;4.55;;;4.13;;
54959;SDS011;40860;51.710;8.736;2023-09-12T09:31:51;4.20;;;3.90;;
54959;SDS011;40860;51.710;8.736;2023-09-12T09:36:01;4.20;;;3.75;;
54959;SDS011;40860;51.710;8.736;2023-09-12T09:40:06;6.00;;;3.88;;
54959;SDS011;40860;51.710;8.736;2023-09-12T09:44:10;5.10;;;4.03;;
54959;SDS011;40860;51.710;8.736;2023-09-12T09:48:17;5.53;;;3.95;;
54959;SDS011;40860;51.710;8.736;2023-09-12T09:52:26;5.32;;;4.10;;
54959;SDS011;40860;51.710;8.736;2023-09-12T09:56:29;3.70;;;3.20;;
54959;SDS011;40860;51.710;8.736;2023-09-12T10:00:33;4.18;;;3.10;;
54959;SDS011;40860;51.710;8.736;2023-09-12T10:04:38;4.97;;;3.10;;
54959;SDS011;40860;51.710;8.736;2023-09-12T10:08:49;2.70;;;2.50;;
54959;SDS011;40860;51.710;8.736;2023-09-12T10:12:55;4.13;;;3.10;;
54959;SDS011;40860;51.710;8.736;2023-09-12T10:17:00;5.57;;;2.40;;
54959;SDS011;40860;51.710;8.736;2023-09-12T10:21:10;3.00;;;2.75;;
54959;SDS011;40860;51.710;8.736;2023-09-12T10:25:19;3.35;;;2.90;;
54959;SDS011;40860;51.710;8.736;2023-09-12T10:29:23;3.50;;;2.80;;
54959;SDS011;40860;51.710;8.736;2023-09-12T10:33:26;3.40;;;3.15;;
54959;SDS011;40860;51.710;8.736;2023-09-12T10:37:33;3.38;;;3.03;;
54959;SDS011;40860;51.710;8.736;2023-09-12T10:41:41;4.65;;;3.13;;
54959;SDS011;40860;51.710;8.736;2023-09-12T10:45:44;4.32;;;3.72;;
54959;SDS011;40860;51.710;8.736;2023-09-12T10:49:47;3.95;;;3.30;;
54959;SDS011;40860;51.710;8.736;2023-09-12T10:53:50;4.03;;;3.20;;
54959;SDS011;40860;51.710;8.736;2023-09-12T10:58:02;4.28;;;2.33;;
54959;SDS011;40860;51.710;8.736;2023-09-12T11:06:30;2.53;;;2.33;;
54959;SDS011;40860;51.710;8.736;2023-09-12T11:10:33;2.42;;;1.80;;
54959;SDS011;40860;51.710;8.736;2023-09-12T11:14:37;7.63;;;1.88;;
54959;SDS011;40860;51.710;8.736;2023-09-12T11:19:14;5.03;;;2.50;;
54959;SDS011;40860;51.710;8.736;2023-09-12T11:23:18;5.75;;;2.20;;
54959;SDS011;40860;51.710;8.736;2023-09-12T11:27:21;2.35;;;2.20;;
54959;SDS011;40860;51.710;8.736;2023-09-12T11:31:26;6.88;;;2.33;;
54959;SDS011;40860;51.710;8.736;2023-09-12T11:35:30;4.53;;;2.30;;
54959;SDS011;40860;51.710;8.736;2023-09-12T11:39:39;4.45;;;2.10;;
54959;SDS011;40860;51.710;8.736;2023-09-12T11:43:42;2.80;;;2.60;;
54959;SDS011;40860;51.710;8.736;2023-09-12T11:47:47;6.05;;;2.80;;
54959;SDS011;40860;51.710;8.736;2023-09-12T11:51:51;3.75;;;2.72;;
54959;SDS011;40860;51.710;8.736;2023-09-12T11:55:56;4.55;;;2.83;;
54959;SDS011;40860;51.710;8.736;2023-09-12T12:00:02;2.67;;;2.30;;
54959;SDS011;40860;51.710;8.736;2023-09-12T12:04:13;5.32;;;2.53;;
54959;SDS011;40860;51.710;8.736;2023-09-12T12:08:17;4.70;;;2.97;;
54959;SDS011;40860;51.710;8.736;2023-09-12T12:12:23;3.20;;;2.88;;
54959;SDS011;40860;51.710;8.736;2023-09-12T12:16:26;4.45;;;2.55;;
54959;SDS011;40860;51.710;8.736;2023-09-12T12:20:31;2.83;;;2.35;;
54959;SDS011;40860;51.710;8.736;2023-09-12T12:24:37;2.75;;;2.38;;
54959;SDS011;40860;51.710;8.736;2023-09-12T12:28:41;3.00;;;2.30;;
54959;SDS011;40860;51.710;8.736;2023-09-12T12:32:45;5.55;;;2.47;;
54959;SDS011;40860;51.710;8.736;2023-09-12T12:36:50;2.38;;;2.17;;
54959;SDS011;40860;51.710;8.736;2023-09-12T12:40:59;2.00;;;1.90;;
54959;SDS011;40860;51.710;8.736;2023-09-12T12:45:02;11.32;;;2.45;;
54959;SDS011;40860;51.710;8.736;2023-09-12T12:49:14;2.20;;;2.00;;
54959;SDS011;40860;51.710;8.736;2023-09-12T12:53:19;2.08;;;1.63;;
54959;SDS011;40860;51.710;8.736;2023-09-12T12:57:52;2.70;;;2.20;;
54959;SDS011;40860;51.710;8.736;2023-09-12T13:01:56;3.15;;;1.95;;
54959;SDS011;40860;51.710;8.736;2023-09-12T13:05:59;12.05;;;2.80;;
54959;SDS011;40860;51.710;8.736;2023-09-12T13:10:03;2.05;;;1.85;;
54959;SDS011;40860;51.710;8.736;2023-09-12T13:14:07;2.05;;;1.90;;
54959;SDS011;40860;51.710;8.736;2023-09-12T13:18:12;1.80;;;1.70;;
54959;SDS011;40860;51.710;8.736;2023-09-12T13:22:15;2.08;;;1.90;;
54959;SDS011;40860;51.710;8.736;2023-09-12T13:26:19;2.63;;;2.22;;
54959;SDS011;40860;51.710;8.736;2023-09-12T13:30:22;1.92;;;1.83;;
54959;SDS011;40860;51.710;8.736;2023-09-12T13:34:25;2.58;;;2.10;;
54959;SDS011;40860;51.710;8.736;2023-09-12T13:38:28;2.55;;;2.30;;
54959;SDS011;40860;51.710;8.736;2023-09-12T13:42:32;4.25;;;2.63;;
54959;SDS011;40860;51.710;8.736;2023-09-12T13:46:36;2.30;;;2.10;;
54959;SDS011;40860;51.710;8.736;2023-09-12T13:50:39;2.72;;;2.08;;
54959;SDS011;40860;51.710;8.736;2023-09-12T13:54:44;2.28;;;2.10;;
54959;SDS011;40860;51.710;8.736;2023-09-12T13:58:48;4.18;;;2.25;;
54959;SDS011;40860;51.710;8.736;2023-09-12T14:02:51;2.50;;;2.30;;
54959;SDS011;40860;51.710;8.736;2023-09-12T14:06:55;2.75;;;2.55;;
54959;SDS011;40860;51.710;8.736;2023-09-12T14:10:58;3.38;;;2.22;;
54959;SDS011;40860;51.710;8.736;2023-09-12T14:15:06;2.60;;;2.40;;
54959;SDS011;40860;51.710;8.736;2023-09-12T14:19:10;4.28;;;2.65;;
54959;SDS011;40860;51.710;8.736;2023-09-12T14:23:14;4.00;;;2.67;;
54959;SDS011;40860;51.710;8.736;2023-09-12T14:27:18;4.53;;;2.55;;
54959;SDS011;40860;51.710;8.736;2023-09-12T14:31:29;2.90;;;2.70;;
54959;SDS011;40860;51.710;8.736;2023-09-12T14:35:32;3.17;;;2.88;;
54959;SDS011;40860;51.710;8.736;2023-09-12T14:39:35;6.22;;;3.10;;
54959;SDS011;40860;51.710;8.736;2023-09-12T14:43:37;4.60;;;2.85;;
54959;SDS011;40860;51.710;8.736;2023-09-12T14:47:42;3.88;;;2.75;;
54959;SDS011;40860;51.710;8.736;2023-09-12T14:51:45;6.88;;;2.70;;
54959;SDS011;40860;51.710;8.736;2023-09-12T14:55:51;3.00;;;2.70;;
54959;SDS011;40860;51.710;8.736;2023-09-12T14:59:54;2.63;;;2.42;;
54959;SDS011;40860;51.710;8.736;2023-09-12T15:04:00;4.88;;;2.88;;
54959;SDS011;40860;51.710;8.736;2023-09-12T15:08:04;3.00;;;2.80;;
54959;SDS011;40860;51.710;8.736;2023-09-12T15:12:08;3.20;;;2.70;;
54959;SDS011;40860;51.710;8.736;2023-09-12T15:16:11;3.88;;;2.88;;
54959;SDS011;40860;51.710;8.736;2023-09-12T15:20:16;3.42;;;2.70;;
54959;SDS011;40860;51.710;8.736;2023-09-12T15:24:19;6.07;;;3.10;;
54959;SDS011;40860;51.710;8.736;2023-09-12T15:28:22;3.05;;;2.72;;
54959;SDS011;40860;51.710;8.736;2023-09-12T15:32:25;3.20;;;3.00;;
54959;SDS011;40860;51.710;8.736;2023-09-12T15:36:29;3.08;;;2.88;;
54959;SDS011;40860;51.710;8.736;2023-09-12T15:40:41;3.58;;;2.88;;
54959;SDS011;40860;51.710;8.736;2023-09-12T15:44:44;2.92;;;2.70;;
54959;SDS011;40860;51.710;8.736;2023-09-12T15:49:02;3.00;;;2.80;;
54959;SDS011;40860;51.710;8.736;2023-09-12T15:53:07;5.70;;;2.95;;
54959;SDS011;40860;51.710;8.736;2023-09-12T15:57:10;3.20;;;2.90;;
54959;SDS011;40860;51.710;8.736;2023-09-12T16:01:15;3.50;;;3.20;;
54959;SDS011;40860;51.710;8.736;2023-09-12T16:05:18;4.00;;;3.05;;
54959;SDS011;40860;51.710;8.736;2023-09-12T16:09:23;7.13;;;3.67;;
54959;SDS011;40860;51.710;8.736;2023-09-12T16:13:26;3.97;;;3.22;;
54959;SDS011;40860;51.710;8.736;2023-09-12T16:17:29;3.35;;;3.05;;
54959;SDS011;40860;51.710;8.736;2023-09-12T16:21:32;11.02;;;3.30;;
54959;SDS011;40860;51.710;8.736;2023-09-12T16:25:36;5.28;;;3.13;;
54959;SDS011;40860;51.710;8.736;2023-09-12T16:29:39;3.25;;;2.95;;
54959;SDS011;40860;51.710;8.736;2023-09-12T16:33:42;4.13;;;3.20;;
54959;SDS011;40860;51.710;8.736;2023-09-12T16:37:45;3.60;;;3.30;;
54959;SDS011;40860;51.710;8.736;2023-09-12T16:41:50;3.83;;;3.30;;
54959;SDS011;40860;51.710;8.736;2023-09-12T16:45:53;5.13;;;3.65;;
54959;SDS011;40860;51.710;8.736;2023-09-12T16:49:57;4.50;;;4.10;;
54959;SDS011;40860;51.710;8.736;2023-09-12T16:54:00;4.85;;;3.85;;
54959;SDS011;40860;51.710;8.736;2023-09-12T16:58:06;4.60;;;3.50;;
54959;SDS011;40860;51.710;8.736;2023-09-12T17:02:09;3.53;;;3.20;;
54959;SDS011;40860;51.710;8.736;2023-09-12T17:06:13;4.55;;;2.60;;
54959;SDS011;40860;51.710;8.736;2023-09-12T17:10:16;3.63;;;3.33;;
54959;SDS011;40860;51.710;8.736;2023-09-12T17:14:20;4.60;;;2.97;;
54959;SDS011;40860;51.710;8.736;2023-09-12T17:18:23;3.53;;;3.22;;
54959;SDS011;40860;51.710;8.736;2023-09-12T17:22:26;4.45;;;3.38;;
54959;SDS011;40860;51.710;8.736;2023-09-12T17:26:29;3.55;;;3.25;;
54959;SDS011;40860;51.710;8.736;2023-09-12T17:30:33;3.58;;;3.10;;
54959;SDS011;40860;51.710;8.736;2023-09-12T17:34:40;67.35;;;5.95;;
54959;SDS011;40860;51.710;8.736;2023-09-12T17:38:43;4.63;;;2.83;;
54959;SDS011;40860;51.710;8.736;2023-09-12T17:42:48;3.40;;;3.13;;
54959;SDS011;40860;51.710;8.736;2023-09-12T17:46:53;3.47;;;3.28;;
54959;SDS011;40860;51.710;8.736;2023-09-12T17:50:56;4.10;;;3.53;;
54959;SDS011;40860;51.710;8.736;2023-09-12T17:54:59;4.07;;;3.67;;
54959;SDS011;40860;51.710;8.736;2023-09-12T17:59:02;5.15;;;3.28;;
54959;SDS011;40860;51.710;8.736;2023-09-12T18:03:06;3.58;;;3.28;;
54959;SDS011;40860;51.710;8.736;2023-09-12T18:07:09;5.90;;;3.70;;
54959;SDS011;40860;51.710;8.736;2023-09-12T18:11:13;7.80;;;3.78;;
54959;SDS011;40860;51.710;8.736;2023-09-12T18:15:16;4.38;;;3.80;;
54959;SDS011;40860;51.710;8.736;2023-09-12T18:19:20;4.38;;;3.85;;
54959;SDS011;40860;51.710;8.736;2023-09-12T18:23:24;5.55;;;3.88;;
54959;SDS011;40860;51.710;8.736;2023-09-12T18:27:27;9.05;;;6.43;;
54959;SDS011;40860;51.710;8.736;2023-09-12T18:31:30;5.38;;;4.50;;
54959;SDS011;40860;51.710;8.736;2023-09-12T18:35:34;5.80;;;5.13;;
54959;SDS011;40860;51.710;8.736;2023-09-12T18:39:37;7.43;;;5.53;;
54959;SDS011;40860;51.710;8.736;2023-09-12T18:43:40;4.97;;;4.40;;
54959;SDS011;40860;51.710;8.736;2023-09-12T18:47:43;4.65;;;4.25;;
54959;SDS011;40860;51.710;8.736;2023-09-12T18:51:48;9.95;;;4.00;;
54959;SDS011;40860;51.710;8.736;2023-09-12T18:55:51;5.28;;;4.40;;
54959;SDS011;40860;51.710;8.736;2023-09-12T18:59:54;5.13;;;4.68;;
54959;SDS011;40860;51.710;8.736;2023-09-12T19:03:57;4.88;;;4.38;;
54959;SDS011;40860;51.710;8.736;2023-09-12T19:08:22;6.15;;;5.00;;
54959;SDS011;40860;51.710;8.736;2023-09-12T19:12:25;5.18;;;4.78;;
54959;SDS011;40860;51.710;8.736;2023-09-12T19:16:28;6.72;;;4.40;;
54959;SDS011;40860;51.710;8.736;2023-09-12T19:20:31;4.97;;;4.55;;
54959;SDS011;40860;51.710;8.736;2023-09-12T19:24:35;4.35;;;3.95;;
54959;SDS011;40860;51.710;8.736;2023-09-12T19:28:38;7.15;;;5.00;;
54959;SDS011;40860;51.710;8.736;2023-09-12T19:32:41;4.88;;;4.47;;
54959;SDS011;40860;51.710;8.736;2023-09-12T19:36:44;5.55;;;4.43;;
54959;SDS011;40860;51.710;8.736;2023-09-12T19:40:56;4.55;;;4.22;;
54959;SDS011;40860;51.710;8.736;2023-09-12T19:45:00;5.28;;;4.78;;
54959;SDS011;40860;51.710;8.736;2023-09-12T19:49:03;5.30;;;4.80;;
54959;SDS011;40860;51.710;8.736;2023-09-12T19:53:06;5.78;;;4.75;;
54959;SDS011;40860;51.710;8.736;2023-09-12T19:57:10;5.13;;;4.72;;
54959;SDS011;40860;51.710;8.736;2023-09-12T20:01:13;5.40;;;4.90;;
54959;SDS011;40860;51.710;8.736;2023-09-12T20:05:17;6.07;;;5.32;;
54959;SDS011;40860;51.710;8.736;2023-09-12T20:09:23;8.15;;;5.40;;
54959;SDS011;40860;51.710;8.736;2023-09-12T20:13:27;6.97;;;4.95;;
54959;SDS011;40860;51.710;8.736;2023-09-12T20:17:30;5.13;;;4.70;;
54959;SDS011;40860;51.710;8.736;2023-09-12T20:21:33;5.93;;;4.88;;
54959;SDS011;40860;51.710;8.736;2023-09-12T20:25:36;6.63;;;6.03;;
54959;SDS011;40860;51.710;8.736;2023-09-12T20:29:40;6.70;;;5.90;;
54959;SDS011;40860;51.710;8.736;2023-09-12T20:33:43;8.88;;;5.70;;
54959;SDS011;40860;51.710;8.736;2023-09-12T20:37:47;8.75;;;6.95;;
54959;SDS011;40860;51.710;8.736;2023-09-12T20:41:50;7.50;;;6.70;;
54959;SDS011;40860;51.710;8.736;2023-09-12T20:45:55;7.72;;;6.80;;
54959;SDS011;40860;51.710;8.736;2023-09-12T20:50:03;8.13;;;6.47;;
54959;SDS011;40860;51.710;8.736;2023-09-12T20:54:09;8.02;;;7.32;;
54959;SDS011;40860;51.710;8.736;2023-09-12T20:58:12;11.15;;;7.60;;
54959;SDS011;40860;51.710;8.736;2023-09-12T21:02:16;10.30;;;7.32;;
54959;SDS011;40860;51.710;8.736;2023-09-12T21:06:19;8.20;;;7.50;;
54959;SDS011;40860;51.710;8.736;2023-09-12T21:10:26;8.90;;;8.00;;
54959;SDS011;40860;51.710;8.736;2023-09-12T21:14:30;8.05;;;7.35;;
54959;SDS011;40860;51.710;8.736;2023-09-12T21:18:34;6.82;;;6.22;;
54959;SDS011;40860;51.710;8.736;2023-09-12T21:22:37;6.85;;;6.15;;
54959;SDS011;40860;51.710;8.736;2023-09-12T21:26:40;8.00;;;5.65;;
54959;SDS011;40860;51.710;8.736;2023-09-12T21:30:47;6.00;;;5.20;;
54959;SDS011;40860;51.710;8.736;2023-09-12T21:35:00;6.20;;;5.55;;
54959;SDS011;40860;51.710;8.736;2023-09-12T21:39:11;5.60;;;5.10;;
54959;SDS011;40860;51.710;8.736;2023-09-12T21:43:14;6.57;;;5.43;;
54959;SDS011;40860;51.710;8.736;2023-09-12T21:47:19;9.13;;;7.38;;
54959;SDS011;40860;51.710;8.736;2023-09-12T21:51:25;11.90;;;8.70;;
54959;SDS011;40860;51.710;8.736;2023-09-12T21:55:34;13.30;;;8.90;;
54959;SDS011;40860;51.710;8.736;2023-09-12T21:59:37;14.88;;;8.48;;
54959;SDS011;40860;51.710;8.736;2023-09-12T22:03:40;10.85;;;7.00;;
54959;SDS011;40860;51.710;8.736;2023-09-12T22:07:46;16.10;;;8.90;;
54959;SDS011;40860;51.710;8.736;2023-09-12T22:11:49;18.00;;;9.20;;
54959;SDS011;40860;51.710;8.736;2023-09-12T22:15:52;32.65;;;9.65;;
54959;SDS011;40860;51.710;8.736;2023-09-12T22:19:55;12.20;;;8.52;;
54959;SDS011;40860;51.710;8.736;2023-09-12T22:23:59;14.60;;;7.93;;
54959;SDS011;40860;51.710;8.736;2023-09-12T22:28:03;10.15;;;8.05;;
54959;SDS011;40860;51.710;8.736;2023-09-12T22:32:06;11.15;;;7.30;;
54959;SDS011;40860;51.710;8.736;2023-09-12T22:36:10;10.20;;;7.93;;
54959;SDS011;40860;51.710;8.736;2023-09-12T22:40:21;8.25;;;6.25;;
54959;SDS011;40860;51.710;8.736;2023-09-12T22:44:24;5.55;;;5.05;;
54959;SDS011;40860;51.710;8.736;2023-09-12T22:48:27;6.13;;;4.78;;
54959;SDS011;40860;51.710;8.736;2023-09-12T22:52:30;6.53;;;5.45;;
54959;SDS011;40860;51.710;8.736;2023-09-12T22:56:34;5.88;;;5.28;;
54959;SDS011;40860;51.710;8.736;2023-09-12T23:00:37;6.82;;;5.28;;
54959;SDS011;40860;51.710;8.736;2023-09-12T23:04:40;5.10;;;4.60;;
54959;SDS011;40860;51.710;8.736;2023-09-12T23:08:43;5.93;;;5.32;;
54959;SDS011;40860;51.710;8.736;2023-09-12T23:12:48;6.30;;;5.72;;
54959;SDS011;40860;51.710;8.736;2023-09-12T23:16:51;6.15;;;5.45;;
54959;SDS011;40860;51.710;8.736;2023-09-12T23:20:55;5.68;;;5.18;;
54959;SDS011;40860;51.710;8.736;2023-09-12T23:24:58;7.93;;;5.35;;
54959;SDS011;40860;51.710;8.736;2023-09-12T23:29:02;6.15;;;5.55;;
54959;SDS011;40860;51.710;8.736;2023-09-12T23:33:05;6.13;;;5.15;;
54959;SDS011;40860;51.710;8.736;2023-09-12T23:37:09;5.78;;;5.20;;
54959;SDS011;40860;51.710;8.736;2023-09-12T23:41:12;6.28;;;5.30;;
54959;SDS011;40860;51.710;8.736;2023-09-12T23:45:16;5.82;;;5.32;;
54959;SDS011;40860;51.710;8.736;2023-09-12T23:49:19;5.40;;;4.90;;
54959;SDS011;40860;51.710;8.736;2023-09-12T23:53:22;5.65;;;4.90;;
54959;SDS011;40860;51.710;8.736;2023-09-12T23:57:25;6.10;;;4.65;;
